Time;durP1;ratioP1;P1;durP2;ratioP2;P2;SDS_P1;SDS_P2;PMS_P1;PMS_P2;Temp;Humidity;BMP_temperature;BMP_pressure;BME280_temperature;BME280_humidity;BME280_pressure;Samples;Min_cycle;Max_cycle;Signal;HPM_P1;HPM_P2
2022/09/01 00:02:14;;;;;;;917.33;831.67;;;20.70;90.70;;;;;;4994239;28;20268;-82
2022/09/01 00:04:43;;;;;;;941.15;854.78;;;20.70;91.20;;;;;;4993162;28;20204;-82
2022/09/01 00:07:11;;;;;;;923.08;837.30;;;20.70;91.20;;;;;;4992341;28;20216;-81
2022/09/01 00:09:38;;;;;;;921.38;835.47;;;20.70;90.80;;;;;;4993045;28;20568;-81
2022/09/01 00:12:09;;;;;;;930.40;844.40;;;20.70;90.70;;;;;;4993775;28;20702;-81
2022/09/01 00:14:40;;;;;;;928.28;842.40;;;20.70;90.80;;;;;;4992308;28;20213;-81
2022/09/01 00:17:10;;;;;;;915.08;829.67;;;20.70;90.80;;;;;;4986725;28;22183;-82
2022/09/01 00:19:38;;;;;;;927.80;841.92;;;20.70;90.80;;;;;;4987885;28;20205;-81
2022/09/01 00:22:05;;;;;;;910.72;825.35;;;20.60;90.70;;;;;;4995154;28;20254;-81
2022/09/01 00:24:32;;;;;;;935.28;849.08;;;20.60;90.80;;;;;;4989290;28;20193;-82
2022/09/01 00:26:59;;;;;;;909.50;824.13;;;20.60;90.80;;;;;;4994252;28;20240;-81
2022/09/01 00:29:27;;;;;;;914.30;828.67;;;20.60;90.90;;;;;;4995009;28;20208;-82
2022/09/01 00:31:54;;;;;;;922.20;836.40;;;20.60;90.80;;;;;;4990848;28;20695;-81
2022/09/01 00:34:21;;;;;;;922.80;836.90;;;20.60;90.80;;;;;;4991852;28;20219;-81
2022/09/01 00:36:48;;;;;;;924.88;838.75;;;20.60;90.90;;;;;;4993576;28;20212;-81
2022/09/01 00:39:16;;;;;;;922.95;837.05;;;20.50;90.80;;;;;;4999796;28;20561;-82
2022/09/01 00:41:43;;;;;;;927.28;841.20;;;20.50;90.90;;;;;;4992107;28;20201;-82
2022/09/01 00:44:13;;;;;;;938.45;851.90;;;20.50;90.90;;;;;;4988819;28;20287;-81
2022/09/01 00:46:44;;;;;;;903.72;818.47;;;20.50;90.90;;;;;;4990460;28;20209;-81
2022/09/01 00:49:16;;;;;;;912.42;826.72;;;20.50;91.30;;;;;;4990483;28;20303;-82
2022/09/01 00:51:48;;;;;;;922.60;836.65;;;20.50;90.90;;;;;;4996465;28;20229;-81
2022/09/01 00:54:20;;;;;;;913.05;827.47;;;20.50;90.90;;;;;;4999471;28;20190;-82
2022/09/01 00:56:48;;;;;;;906.95;821.42;;;20.50;90.90;;;;;;4991996;28;20202;-80
2022/09/01 00:59:17;;;;;;;912.15;826.67;;;20.50;91.00;;;;;;4991101;28;20280;-80
2022/09/01 01:01:45;;;;;;;904.45;819.03;;;20.40;91.00;;;;;;4994288;28;20193;-81
2022/09/01 01:04:13;;;;;;;929.45;843.30;;;20.40;91.00;;;;;;4985463;28;20233;-81
2022/09/01 01:06:42;;;;;;;901.45;816.28;;;20.40;91.00;;;;;;4984988;28;20210;-81
2022/09/01 01:09:09;;;;;;;912.95;827.38;;;20.40;90.90;;;;;;4990705;28;20197;-83
2022/09/01 01:11:36;;;;;;;915.63;829.92;;;20.40;90.90;;;;;;4989175;28;20596;-82
2022/09/01 01:14:11;;;;;;;914.95;829.15;;;20.30;91.00;;;;;;4992474;28;20205;-83
2022/09/01 01:16:42;;;;;;;900.95;815.78;;;20.30;91.00;;;;;;4990473;28;20208;-83
2022/09/01 01:23:00;;;;;;;901.50;816.13;;;20.30;91.00;;;;;;4993290;28;20679;-82
2022/09/01 01:24:48;;;;;;;908.60;823.15;;;20.30;91.10;;;;;;4992086;28;20208;-82
2022/09/01 01:27:16;;;;;;;907.40;821.95;;;20.30;91.10;;;;;;4993801;28;20202;-82
2022/09/01 01:29:43;;;;;;;908.53;822.80;;;20.30;91.10;;;;;;4997658;28;20204;-82
2022/09/01 01:32:11;;;;;;;914.05;828.40;;;20.30;91.10;;;;;;4990728;28;20267;-84
2022/09/01 01:34:44;;;;;;;901.60;816.22;;;20.20;91.10;;;;;;4991796;28;20633;-82
2022/09/01 01:37:13;;;;;;;895.60;810.65;;;20.20;91.10;;;;;;4991418;28;20197;-82
2022/09/01 01:39:42;;;;;;;896.42;811.22;;;20.20;91.20;;;;;;4991288;28;20657;-82
2022/09/01 01:42:11;;;;;;;899.40;814.25;;;20.20;91.30;;;;;;4992559;28;20260;-82
2022/09/01 01:44:39;;;;;;;901.00;815.78;;;20.20;91.30;;;;;;4992974;28;20205;-82
2022/09/01 01:47:11;;;;;;;902.90;817.40;;;20.20;91.40;;;;;;4992187;28;20656;-81
2022/09/01 01:49:42;;;;;;;901.70;816.40;;;20.10;91.30;;;;;;4992035;28;20295;-82
2022/09/01 01:52:13;;;;;;;902.47;817.25;;;20.10;91.30;;;;;;4990849;28;20587;-81
2022/09/01 01:54:41;;;;;;;893.90;808.65;;;20.10;91.40;;;;;;4976919;28;20284;-82
2022/09/01 01:57:08;;;;;;;905.28;819.88;;;20.10;91.30;;;;;;5001547;28;20197;-81
2022/09/01 01:59:37;;;;;;;900.53;815.28;;;20.10;91.50;;;;;;4992242;28;20205;-82
2022/09/01 02:02:07;;;;;;;903.42;818.25;;;20.10;91.50;;;;;;4987549;28;20204;-82
2022/09/01 02:04:34;;;;;;;903.50;818.05;;;20.00;91.30;;;;;;4993409;28;20621;-82
2022/09/01 02:07:01;;;;;;;904.10;818.63;;;20.00;91.50;;;;;;4996027;28;20199;-82
2022/09/01 02:09:27;;;;;;;890.60;805.63;;;20.00;91.50;;;;;;4998900;28;20627;-82
2022/09/01 02:11:56;;;;;;;893.17;808.22;;;20.00;91.60;;;;;;4992861;28;20235;-81
2022/09/01 02:14:23;;;;;;;906.90;821.20;;;20.00;91.60;;;;;;4987036;28;20197;-81
2022/09/01 02:16:54;;;;;;;902.05;816.67;;;20.00;91.90;;;;;;4989769;28;20656;-81
2022/09/01 02:19:21;;;;;;;890.53;805.47;;;20.00;91.60;;;;;;4990685;28;20564;-83
2022/09/01 02:21:53;;;;;;;896.85;812.08;;;20.00;91.60;;;;;;4998929;28;20663;-82
2022/09/01 02:24:20;;;;;;;902.33;817.42;;;19.90;91.60;;;;;;4987286;28;20240;-83
2022/09/01 02:26:47;;;;;;;914.45;829.10;;;19.90;91.50;;;;;;4992247;28;20203;-81
2022/09/01 02:29:17;;;;;;;896.53;811.75;;;19.90;91.60;;;;;;4988186;28;20204;-82
2022/09/01 02:31:46;;;;;;;908.05;822.85;;;19.90;91.70;;;;;;4996413;28;20220;-82
2022/09/01 02:34:15;;;;;;;892.08;807.55;;;19.90;91.80;;;;;;4992348;28;20223;-82
2022/09/01 02:36:46;;;;;;;893.78;809.20;;;19.90;91.80;;;;;;4999722;28;20211;-82
2022/09/01 02:39:13;;;;;;;882.78;798.00;;;19.80;91.70;;;;;;4984479;28;20211;-82
2022/09/01 02:41:40;;;;;;;908.88;823.28;;;19.80;91.80;;;;;;4988897;28;20200;-82
2022/09/01 02:44:10;;;;;;;885.45;800.95;;;19.80;91.90;;;;;;4986636;28;20198;-82
2022/09/01 02:46:40;;;;;;;899.92;814.72;;;19.80;91.80;;;;;;4988947;28;20209;-82
2022/09/01 02:49:13;;;;;;;894.92;809.63;;;19.80;91.90;;;;;;4991819;28;20287;-82
2022/09/01 02:51:42;;;;;;;879.53;794.83;;;19.80;91.90;;;;;;4988850;28;20688;-82
2022/09/01 02:54:09;;;;;;;884.47;799.58;;;19.80;91.90;;;;;;4991656;28;20201;-82
2022/09/01 02:56:36;;;;;;;886.78;801.83;;;19.70;91.90;;;;;;4991271;28;20209;-82
2022/09/01 02:59:04;;;;;;;891.88;806.78;;;19.70;91.90;;;;;;4992456;28;20564;-82
2022/09/01 03:01:32;;;;;;;865.63;781.38;;;19.70;92.00;;;;;;4998696;28;20289;-81
2022/09/01 03:04:01;;;;;;;886.97;801.97;;;19.70;92.00;;;;;;4989845;28;20715;-81
2022/09/01 03:06:30;;;;;;;882.83;798.05;;;19.70;91.90;;;;;;4996084;28;20562;-82
2022/09/01 03:08:59;;;;;;;896.60;811.22;;;19.70;92.00;;;;;;5000142;28;20209;-81
2022/09/01 03:11:28;;;;;;;885.25;800.50;;;19.70;92.00;;;;;;4994606;28;20702;-82
2022/09/01 03:13:55;;;;;;;902.55;817.13;;;19.70;92.00;;;;;;4982018;28;20205;-82
2022/09/01 03:16:22;;;;;;;877.38;792.63;;;19.70;92.00;;;;;;4987334;28;20203;-82
2022/09/01 03:18:49;;;;;;;874.67;790.03;;;19.60;92.00;;;;;;4989998;28;20207;-82
2022/09/01 03:21:16;;;;;;;887.03;801.95;;;19.60;92.40;;;;;;4988216;28;20201;-82
2022/09/01 03:23:44;;;;;;;879.47;794.70;;;19.60;92.10;;;;;;4989617;28;20205;-82
2022/09/01 03:26:15;;;;;;;870.60;786.13;;;19.60;92.00;;;;;;4991276;28;20193;-82
2022/09/01 03:28:41;;;;;;;879.17;794.33;;;19.60;92.10;;;;;;4990717;28;20219;-82
2022/09/01 03:31:08;;;;;;;878.72;793.95;;;19.60;92.10;;;;;;4987341;28;20200;-83
2022/09/01 03:33:35;;;;;;;888.15;803.05;;;19.60;92.10;;;;;;4991460;28;20275;-82
2022/09/01 03:36:03;;;;;;;884.67;799.72;;;19.60;92.10;;;;;;4986519;28;20600;-83
2022/09/01 03:38:30;;;;;;;886.65;801.53;;;19.60;92.10;;;;;;4979782;28;20287;-82
2022/09/01 03:41:00;;;;;;;867.50;782.92;;;19.60;92.10;;;;;;4987078;28;20208;-82
2022/09/01 03:43:30;;;;;;;877.90;793.00;;;19.50;92.30;;;;;;4989697;28;20332;-81
2022/09/01 03:46:00;;;;;;;872.25;787.88;;;19.50;92.10;;;;;;4986686;28;20577;-81
2022/09/01 03:48:28;;;;;;;866.67;782.30;;;19.50;92.20;;;;;;4991169;28;20204;-81
2022/09/01 03:51:01;;;;;;;878.28;793.53;;;19.50;92.20;;;;;;4991032;28;20212;-81
2022/09/01 03:53:31;;;;;;;880.80;795.85;;;19.50;92.20;;;;;;4988965;28;20212;-81
2022/09/01 03:55:58;;;;;;;878.92;794.42;;;19.50;92.20;;;;;;4990346;28;20204;-80
2022/09/01 03:58:26;;;;;;;868.25;783.70;;;19.50;92.20;;;;;;4989624;28;20639;-81
2022/09/01 04:00:59;;;;;;;869.30;784.65;;;19.50;92.60;;;;;;4991403;28;20193;-81
2022/09/01 04:03:29;;;;;;;865.53;781.35;;;19.50;92.30;;;;;;4991602;28;20639;-81
2022/09/01 04:05:57;;;;;;;878.50;793.53;;;19.50;92.30;;;;;;4976875;28;20205;-81
2022/09/01 04:08:28;;;;;;;879.70;794.85;;;19.40;92.30;;;;;;4981008;28;20194;-81
2022/09/01 04:10:55;;;;;;;861.17;776.70;;;19.40;92.30;;;;;;4990332;28;20231;-81
2022/09/01 04:13:25;;;;;;;863.17;778.70;;;19.40;92.30;;;;;;4989755;28;20221;-80
2022/09/01 04:15:52;;;;;;;872.40;787.72;;;19.40;92.40;;;;;;4988149;28;20208;-81
2022/09/01 04:18:20;;;;;;;873.40;788.63;;;19.40;92.40;;;;;;4985153;28;20556;-82
2022/09/01 04:20:49;;;;;;;861.70;777.50;;;19.40;92.40;;;;;;4989851;28;20296;-82
2022/09/01 04:23:20;;;;;;;868.22;784.03;;;19.40;92.40;;;;;;4990965;28;20193;-82
2022/09/01 04:25:49;;;;;;;853.15;769.15;;;19.30;92.30;;;;;;4988851;28;20217;-81
2022/09/01 04:28:21;;;;;;;876.65;791.95;;;19.30;92.40;;;;;;4985361;28;20565;-82
2022/09/01 04:30:50;;;;;;;873.65;788.97;;;19.30;92.40;;;;;;4986097;28;20652;-83
2022/09/01 04:33:17;;;;;;;868.10;783.83;;;19.30;92.50;;;;;;4976665;28;20619;-82
2022/09/01 04:35:45;;;;;;;863.85;779.55;;;19.30;92.50;;;;;;4996354;28;20217;-82
2022/09/01 04:38:14;;;;;;;867.08;782.67;;;19.30;92.90;;;;;;4997202;28;20202;-82
2022/09/01 04:40:42;;;;;;;849.38;765.45;;;19.30;92.60;;;;;;4991431;28;20965;-82
2022/09/01 04:43:09;;;;;;;865.33;781.00;;;19.20;92.50;;;;;;4993176;28;20189;-82
2022/09/01 04:45:37;;;;;;;859.55;775.25;;;19.20;92.50;;;;;;4986477;28;20204;-82
2022/09/01 04:48:05;;;;;;;846.72;762.83;;;19.20;92.50;;;;;;4990651;28;20222;-82
2022/09/01 04:50:33;;;;;;;846.70;762.63;;;19.20;92.60;;;;;;4990253;28;20217;-82
2022/09/01 04:53:05;;;;;;;859.58;775.67;;;19.20;92.60;;;;;;4996094;28;20232;-82
2022/09/01 04:55:31;;;;;;;851.80;767.70;;;19.20;92.60;;;;;;4993151;28;20205;-82
2022/09/01 04:58:02;;;;;;;847.33;763.53;;;19.20;92.60;;;;;;4992656;28;20204;-83
2022/09/01 05:00:31;;;;;;;870.15;785.60;;;19.20;92.60;;;;;;4995448;28;20202;-81
2022/09/01 05:03:02;;;;;;;846.83;762.83;;;19.20;92.60;;;;;;4987786;28;20233;-81
2022/09/01 05:05:38;;;;;;;852.00;767.97;;;19.20;92.60;;;;;;4991514;28;20229;-81
2022/09/01 05:08:12;;;;;;;857.05;772.85;;;19.10;92.70;;;;;;4989441;28;20616;-81
2022/09/01 05:10:40;;;;;;;856.33;771.92;;;19.10;92.60;;;;;;4992499;28;20204;-81
2022/09/01 05:13:08;;;;;;;865.05;780.42;;;19.10;92.70;;;;;;4992565;28;20217;-82
2022/09/01 05:15:37;;;;;;;855.63;771.42;;;19.10;92.70;;;;;;4987745;28;20202;-82
2022/09/01 05:18:08;;;;;;;862.58;778.13;;;19.10;92.60;;;;;;4990355;28;20665;-81
2022/09/01 05:20:40;;;;;;;867.22;782.58;;;19.10;92.70;;;;;;4991340;28;20197;-81
2022/09/01 05:23:11;;;;;;;853.05;768.88;;;19.10;92.70;;;;;;4983670;28;20193;-82
2022/09/01 05:25:40;;;;;;;850.08;766.08;;;19.10;92.70;;;;;;4993675;28;20205;-82
2022/09/01 05:28:08;;;;;;;856.65;772.30;;;19.00;92.70;;;;;;4992470;28;20563;-81
2022/09/01 05:30:37;;;;;;;850.28;766.33;;;19.00;92.70;;;;;;4991734;28;20232;-82
2022/09/01 05:33:09;;;;;;;850.13;766.15;;;19.00;92.60;;;;;;4988438;28;20217;-81
2022/09/01 05:35:37;;;;;;;838.05;754.05;;;19.00;92.70;;;;;;4992202;28;20252;-81
2022/09/01 05:38:04;;;;;;;849.50;765.33;;;19.00;92.70;;;;;;4987604;28;20207;-84
2022/09/01 05:40:33;;;;;;;858.38;774.08;;;19.00;92.70;;;;;;4991773;28;20205;-82
2022/09/01 05:42:59;;;;;;;850.60;766.53;;;19.00;92.70;;;;;;4989773;28;20193;-83
2022/09/01 05:45:26;;;;;;;861.47;777.47;;;19.00;92.70;;;;;;4991333;28;20201;-83
2022/09/01 05:47:53;;;;;;;831.17;747.70;;;19.00;93.00;;;;;;4993016;28;20568;-83
2022/09/01 05:50:20;;;;;;;840.33;756.72;;;19.00;92.80;;;;;;4993074;28;20228;-82
2022/09/01 05:52:47;;;;;;;845.22;761.38;;;19.00;92.80;;;;;;4991651;28;20690;-84
2022/09/01 05:55:15;;;;;;;861.05;776.80;;;19.00;92.70;;;;;;4992299;28;20215;-83
2022/09/01 05:57:46;;;;;;;853.40;769.30;;;19.10;92.50;;;;;;4993961;28;20652;-83
2022/09/01 06:00:16;;;;;;;855.50;771.13;;;19.30;92.10;;;;;;4989024;28;20197;-82
2022/09/01 06:02:43;;;;;;;863.92;779.58;;;19.60;91.80;;;;;;4987541;28;20225;-83
2022/09/01 06:05:14;;;;;;;891.83;806.45;;;19.90;91.30;;;;;;5001504;28;20213;-83
2022/09/01 06:07:41;;;;;;;907.72;821.97;;;20.20;91.00;;;;;;4987861;28;20201;-83
2022/09/01 06:10:09;;;;;;;910.92;825.13;;;20.40;90.50;;;;;;4990542;28;20208;-83
2022/09/01 06:12:35;;;;;;;902.45;817.25;;;20.60;89.80;;;;;;4987620;28;20243;-83
2022/09/01 06:15:07;;;;;;;923.53;837.58;;;20.80;89.20;;;;;;4991069;28;20559;-83
2022/09/01 06:17:34;;;;;;;944.97;858.38;;;21.00;88.40;;;;;;4991468;28;20205;-83
2022/09/01 06:20:09;;;;;;;944.85;858.35;;;21.20;87.60;;;;;;4992638;28;20200;-82
2022/09/01 06:22:36;;;;;;;953.75;866.97;;;21.40;86.90;;;;;;4990323;28;20201;-82
2022/09/01 06:25:05;;;;;;;967.53;880.35;;;21.50;86.30;;;;;;4984121;28;20314;-83
2022/09/01 06:27:32;;;;;;;972.03;884.85;;;21.60;85.70;;;;;;4987739;28;20209;-83
2022/09/01 06:30:00;;;;;;;965.70;878.53;;;21.70;85.30;;;;;;4983897;28;20197;-83
2022/09/01 06:32:28;;;;;;;977.92;890.47;;;21.80;84.80;;;;;;4984203;28;20203;-82
2022/09/01 06:34:56;;;;;;;989.85;902.20;;;22.00;84.30;;;;;;4987398;28;20197;-82
2022/09/01 06:37:24;;;;;;;987.40;899.75;;;22.10;84.00;;;;;;4985077;28;20205;-82
2022/09/01 06:39:51;;;;;;;996.70;908.80;;;22.20;83.40;;;;;;4984673;28;20204;-84
2022/09/01 06:42:19;;;;;;;994.22;906.40;;;22.30;83.10;;;;;;4987470;28;20292;-82
2022/09/01 06:44:46;;;;;;;1003.00;914.92;;;22.40;83.10;;;;;;4982348;28;20338;-83
2022/09/01 06:47:14;;;;;;;1013.70;925.28;;;22.50;82.60;;;;;;4996237;28;20207;-82
2022/09/01 06:49:42;;;;;;;1012.10;923.90;;;22.60;82.20;;;;;;4989397;28;20688;-82
2022/09/01 06:52:10;;;;;;;1017.25;928.75;;;22.60;81.70;;;;;;4984824;28;20197;-82
2022/09/01 06:54:40;;;;;;;1007.05;918.90;;;22.70;81.40;;;;;;4987982;28;20298;-81
2022/09/01 06:57:07;;;;;;;1015.28;926.78;;;22.80;81.10;;;;;;4985176;28;20193;-82
2022/09/01 06:59:34;;;;;;;1024.10;935.40;;;22.80;80.70;;;;;;4985701;28;20209;-83
2022/09/01 07:02:02;;;;;;;1020.60;931.95;;;23.00;80.60;;;;;;4983144;28;20189;-83
2022/09/01 07:04:30;;;;;;;1010.70;922.38;;;23.00;80.40;;;;;;4988389;28;20244;-82
2022/09/01 07:06:59;;;;;;;1018.90;930.50;;;23.10;79.80;;;;;;4985991;28;20216;-82
2022/09/01 07:09:26;;;;;;;1038.45;949.22;;;23.20;79.70;;;;;;4986654;28;20201;-83
2022/09/01 07:11:54;;;;;;;1030.20;941.38;;;23.20;79.60;;;;;;4985664;28;21048;-81
2022/09/01 07:14:21;;;;;;;1027.60;939.03;;;23.30;79.40;;;;;;4989111;28;20243;-83
2022/09/01 07:16:47;;;;;;;1024.80;935.95;;;23.40;79.00;;;;;;4989704;28;20193;-83
2022/09/01 07:19:15;;;;;;;1031.25;942.22;;;23.50;79.00;;;;;;4992129;28;20751;-82
2022/09/01 07:21:43;;;;;;;1051.53;961.95;;;23.60;78.70;;;;;;4981158;28;20201;-83
2022/09/01 07:24:17;;;;;;;1046.60;957.03;;;23.70;78.40;;;;;;4983553;28;20340;-83
2022/09/01 07:26:44;;;;;;;1044.50;955.05;;;23.80;78.10;;;;;;4982332;28;20224;-82
2022/09/01 07:29:11;;;;;;;1039.95;950.85;;;23.90;77.90;;;;;;4990414;28;20201;-84
2022/09/01 07:31:42;;;;;;;1045.75;956.30;;;23.90;77.10;;;;;;4997340;28;20193;-84
2022/09/01 07:34:12;;;;;;;1058.20;968.42;;;23.90;77.30;;;;;;4987768;28;20688;-83
2022/09/01 07:36:39;;;;;;;1057.25;967.45;;;24.00;77.10;;;;;;4986763;28;20258;-83
2022/09/01 07:39:06;;;;;;;1059.15;969.25;;;24.00;77.00;;;;;;4997616;28;20204;-82
2022/09/01 07:41:38;;;;;;;1050.28;960.45;;;24.00;76.80;;;;;;4990580;28;20204;-82
2022/09/01 07:44:07;;;;;;;1070.18;979.78;;;24.00;76.80;;;;;;4980746;28;20204;-81
2022/09/01 07:46:35;;;;;;;1048.53;959.08;;;24.00;76.40;;;;;;4987363;28;20756;-82
2022/09/01 07:49:03;;;;;;;1048.30;958.80;;;24.10;76.40;;;;;;4979048;28;20201;-82
2022/09/01 07:51:32;;;;;;;1056.63;966.80;;;24.10;76.60;;;;;;4995430;28;20204;-82
2022/09/01 07:54:01;;;;;;;1053.45;963.53;;;24.10;76.40;;;;;;4991282;28;20699;-84
2022/09/01 07:56:29;;;;;;;1056.43;966.83;;;24.20;76.10;;;;;;4982348;28;20198;-81
2022/09/01 07:58:57;;;;;;;1064.13;974.17;;;24.20;76.00;;;;;;4979822;28;20201;-80
2022/09/01 08:01:26;;;;;;;1063.50;973.28;;;24.20;75.90;;;;;;4976473;28;20197;-80
2022/09/01 08:03:56;;;;;;;1057.90;968.05;;;24.20;75.00;;;;;;4990745;28;20224;-81
2022/09/01 08:06:25;;;;;;;1070.38;980.22;;;24.20;75.40;;;;;;4989420;28;20207;-81
2022/09/01 08:08:54;;;;;;;1047.88;958.65;;;24.20;75.70;;;;;;4990354;28;20623;-81
2022/09/01 08:11:23;;;;;;;1082.43;991.58;;;24.20;75.60;;;;;;4984245;28;20193;-83
2022/09/01 08:13:51;;;;;;;1054.57;964.75;;;24.30;75.70;;;;;;4986294;28;20249;-82
2022/09/01 08:16:20;;;;;;;1071.47;981.30;;;24.30;75.00;;;;;;5003208;28;20659;-80
2022/09/01 08:18:48;;;;;;;1073.15;982.85;;;24.30;74.90;;;;;;4994346;28;20197;-80
2022/09/01 08:21:16;;;;;;;1067.53;977.20;;;24.30;74.90;;;;;;4988429;28;20213;-80
2022/09/01 08:23:42;;;;;;;1066.93;977.10;;;24.30;75.00;;;;;;4995881;28;20224;-81
2022/09/01 08:26:11;;;;;;;1068.38;978.25;;;24.30;74.60;;;;;;4993330;28;20189;-80
2022/09/01 08:28:39;;;;;;;1053.68;964.25;;;24.30;74.70;;;;;;4993479;28;20538;-81
2022/09/01 08:31:07;;;;;;;1061.03;971.03;;;24.30;75.00;;;;;;5000928;28;20263;-81
2022/09/01 08:33:36;;;;;;;1063.35;973.25;;;24.30;74.50;;;;;;4990936;28;20220;-83
2022/09/01 08:36:03;;;;;;;1063.40;973.30;;;24.30;75.30;;;;;;4987069;28;20213;-83
2022/09/01 08:38:30;;;;;;;1060.60;970.60;;;24.30;74.40;;;;;;4981474;28;20193;-82
2022/09/01 08:40:58;;;;;;;1061.40;971.38;;;24.30;74.90;;;;;;4989286;28;20209;-83
2022/09/01 08:43:42;;;;;;;1068.40;978.28;;;24.30;75.40;;;;;;4985457;28;20201;-81
2022/09/01 08:46:14;;;;;;;1066.47;976.65;;;24.30;75.00;;;;;;4982722;28;20201;-82
2022/09/01 08:48:45;;;;;;;1063.70;973.95;;;24.30;75.30;;;;;;4994438;28;20213;-81
2022/09/01 08:51:21;;;;;;;1076.80;985.95;;;24.30;74.80;;;;;;4988080;28;20295;-83
2022/09/01 08:53:57;;;;;;;1065.45;975.70;;;24.30;73.80;;;;;;4989977;28;20232;-83
2022/09/01 08:56:24;;;;;;;1066.15;976.08;;;24.30;73.90;;;;;;4986814;28;20203;-84
2022/09/01 08:58:50;;;;;;;1067.20;976.97;;;24.30;74.30;;;;;;4992221;28;20212;-83
2022/09/01 09:01:26;;;;;;;1046.68;957.60;;;24.20;75.00;;;;;;4991623;28;20211;-83
2022/09/01 09:04:10;;;;;;;1057.65;968.03;;;24.20;73.30;;;;;;4996406;28;20271;-83
2022/09/01 09:06:45;;;;;;;1066.93;976.88;;;24.20;75.20;;;;;;4991324;28;20197;-83
2022/09/01 09:09:12;;;;;;;1063.13;973.38;;;24.20;74.80;;;;;;4994282;28;20204;-82
2022/09/01 09:12:02;;;;;;;1060.60;970.75;;;24.20;74.90;;;;;;4988741;28;20564;-83
2022/09/01 09:14:41;;;;;;;1058.03;968.17;;;24.20;74.40;;;;;;4992341;28;20223;-85
2022/09/01 09:17:09;;;;;;;1049.47;960.20;;;24.20;75.10;;;;;;4994337;28;20247;-84
2022/09/01 09:19:40;;;;;;;1063.35;973.60;;;24.10;75.10;;;;;;4986611;28;20279;-84
2022/09/01 09:22:10;;;;;;;1068.75;978.83;;;24.10;75.20;;;;;;4994999;28;20253;-83
2022/09/01 09:24:47;;;;;;;1071.55;981.40;;;24.10;74.70;;;;;;4993182;28;20609;-84
2022/09/01 09:27:18;;;;;;;1055.10;965.47;;;24.10;74.80;;;;;;4992995;28;20208;-82
2022/09/01 09:29:46;;;;;;;1056.75;967.10;;;24.00;75.20;;;;;;4990432;28;20205;-82
2022/09/01 09:32:13;;;;;;;1064.93;975.15;;;24.00;74.50;;;;;;4989784;28;20198;-84
2022/09/01 09:34:42;;;;;;;1059.82;970.35;;;24.00;75.00;;;;;;4986551;28;20242;-83
2022/09/01 09:37:25;;;;;;;1036.60;947.75;;;24.00;75.10;;;;;;4993763;28;20663;-82
2022/09/01 09:40:06;;;;;;;1044.53;955.60;;;24.00;74.50;;;;;;4990283;28;20205;-84
2022/09/01 09:42:33;;;;;;;1056.47;967.22;;;24.00;74.80;;;;;;4989904;28;20209;-84
2022/09/01 09:45:00;;;;;;;1039.68;950.88;;;24.00;74.00;;;;;;4991342;28;20197;-83
2022/09/01 09:47:38;;;;;;;1049.72;960.38;;;23.90;74.20;;;;;;4993625;28;20197;-83
2022/09/01 09:50:19;;;;;;;1054.28;964.97;;;23.90;75.00;;;;;;4991932;28;20197;-85
2022/09/01 09:52:46;;;;;;;1058.07;968.65;;;23.90;75.40;;;;;;5008744;28;20199;-83
2022/09/01 09:55:26;;;;;;;1057.10;967.70;;;23.80;73.90;;;;;;4991919;28;20291;-83
2022/09/01 09:57:56;;;;;;;1057.43;967.83;;;23.80;75.20;;;;;;4975225;28;20197;-84
2022/09/01 10:00:25;;;;;;;1058.10;968.47;;;23.80;74.30;;;;;;4990198;28;20204;-84
2022/09/01 10:02:55;;;;;;;1044.60;955.67;;;23.80;73.90;;;;;;4991286;28;20221;-82
2022/09/01 10:05:39;;;;;;;1057.55;968.03;;;23.80;73.50;;;;;;4990579;28;20207;-82
2022/09/01 10:08:08;;;;;;;1053.15;964.03;;;23.80;74.10;;;;;;4992686;28;20197;-82
2022/09/01 10:10:40;;;;;;;1047.22;957.95;;;23.80;75.10;;;;;;4991968;28;20353;-83
2022/09/01 10:13:12;;;;;;;1050.88;961.75;;;23.70;75.20;;;;;;4987251;28;20260;-83
2022/09/01 10:15:40;;;;;;;1052.63;963.50;;;23.70;74.90;;;;;;4981613;28;20220;-83
2022/09/01 10:18:13;;;;;;;1054.78;965.38;;;23.70;75.20;;;;;;4990609;28;20644;-82
2022/09/01 10:20:48;;;;;;;1044.90;955.92;;;23.70;75.30;;;;;;4999996;28;20247;-84
2022/09/01 10:23:15;;;;;;;1049.53;960.38;;;23.70;75.70;;;;;;4985443;28;20207;-83
2022/09/01 10:25:43;;;;;;;1034.45;946.20;;;23.70;75.40;;;;;;4989993;28;20288;-83
2022/09/01 10:28:16;;;;;;;1035.22;946.50;;;23.70;75.80;;;;;;4988948;28;20287;-81
2022/09/01 10:30:46;;;;;;;1037.82;949.08;;;23.70;76.00;;;;;;4994722;28;20212;-83
2022/09/01 10:33:16;;;;;;;1037.80;949.25;;;23.70;75.50;;;;;;4987983;28;20195;-83
2022/09/01 10:35:47;;;;;;;1048.28;959.15;;;23.70;75.70;;;;;;4988282;28;20710;-84
2022/09/01 10:38:19;;;;;;;1042.57;953.97;;;23.70;75.80;;;;;;4991498;28;20185;-84
2022/09/01 10:40:47;;;;;;;1030.15;941.90;;;23.70;75.80;;;;;;4991453;28;20236;-83
2022/09/01 10:43:34;;;;;;;1045.50;956.63;;;23.70;75.60;;;;;;4990547;28;20288;-83
2022/09/01 10:46:09;;;;;;;1032.30;943.90;;;23.60;72.90;;;;;;4987955;28;20715;-82
2022/09/01 10:48:37;;;;;;;1048.45;959.55;;;23.60;74.90;;;;;;4994642;28;20261;-82
2022/09/01 10:51:39;;;;;;;1035.90;947.67;;;23.60;75.10;;;;;;4982855;28;20584;-83
2022/09/01 10:54:07;;;;;;;1027.05;939.30;;;23.60;75.10;;;;;;4980244;28;20231;-80
2022/09/01 10:56:40;;;;;;;1024.03;935.90;;;23.50;75.40;;;;;;4991368;28;20288;-82
2022/09/01 10:59:09;;;;;;;1016.97;929.42;;;23.50;74.90;;;;;;4985433;28;20205;-83
2022/09/01 11:02:04;;;;;;;1031.05;942.92;;;23.50;75.60;;;;;;4993830;28;20573;-81
2022/09/01 11:05:04;;;;;;;1021.63;933.65;;;23.50;75.90;;;;;;4975178;28;20225;-82
2022/09/01 11:07:32;;;;;;;997.38;910.58;;;23.40;76.00;;;;;;4987263;28;20197;-82
2022/09/01 11:10:38;;;;;;;1023.20;935.33;;;23.40;76.10;;;;;;4988110;28;20572;-81
2022/09/01 11:13:30;;;;;;;1025.65;937.53;;;23.40;76.20;;;;;;4949169;28;20208;-82
2022/09/01 11:16:16;;;;;;;1019.05;931.33;;;23.40;75.60;;;;;;5000337;28;20225;-81
2022/09/01 11:18:43;;;;;;;1025.60;937.78;;;23.40;76.10;;;;;;4989950;28;20683;-81
2022/09/01 11:21:16;;;;;;;1019.45;931.72;;;23.40;76.40;;;;;;4988783;28;20596;-83
2022/09/01 11:23:45;;;;;;;1024.82;936.47;;;23.40;76.50;;;;;;4992158;28;20285;-82
2022/09/01 11:26:47;;;;;;;1018.92;931.00;;;23.40;76.40;;;;;;4991311;28;20201;-81
2022/09/01 11:29:50;;;;;;;1024.72;936.65;;;23.30;75.90;;;;;;4981660;28;20247;-82
2022/09/01 11:32:18;;;;;;;1010.58;923.17;;;23.30;76.00;;;;;;4980981;28;20214;-82
2022/09/01 11:34:48;;;;;;;1014.80;927.17;;;23.30;76.40;;;;;;4986436;28;20225;-82
2022/09/01 11:37:16;;;;;;;1012.72;924.88;;;23.30;75.80;;;;;;4998451;28;20196;-82
2022/09/01 11:39:48;;;;;;;1011.78;923.92;;;23.30;75.50;;;;;;4988834;28;20633;-82
2022/09/01 11:42:21;;;;;;;1014.17;926.60;;;23.30;75.30;;;;;;4986921;28;20197;-82
2022/09/01 11:44:57;;;;;;;1023.00;934.95;;;23.30;75.00;;;;;;4984900;28;20281;-83
2022/09/01 11:47:27;;;;;;;1010.70;923.08;;;23.30;74.90;;;;;;4994084;28;20229;-82
2022/09/01 11:49:57;;;;;;;1021.42;933.78;;;23.30;74.30;;;;;;4988703;28;20215;-83
2022/09/01 11:52:26;;;;;;;1000.83;913.80;;;23.30;75.10;;;;;;4998815;28;20197;-82
2022/09/01 11:54:54;;;;;;;1010.40;923.03;;;23.30;75.30;;;;;;4991606;28;20228;-81
2022/09/01 11:57:30;;;;;;;1034.85;946.45;;;23.30;74.40;;;;;;4987117;28;20207;-82
2022/09/01 11:59:59;;;;;;;1006.25;918.80;;;23.30;74.20;;;;;;4981435;28;20196;-81
2022/09/01 12:02:28;;;;;;;1019.53;931.75;;;23.30;74.40;;;;;;4989060;28;20209;-82
2022/09/01 12:04:56;;;;;;;1015.38;928.13;;;23.30;75.00;;;;;;4980828;28;20820;-81
2022/09/01 12:07:35;;;;;;;1012.78;925.13;;;23.30;73.70;;;;;;4989873;28;20572;-80
2022/09/01 12:13:08;;;;;;;991.95;905.33;;;23.20;74.10;;;;;;4984586;28;20223;-86
2022/09/01 12:15:40;;;;;;;1011.17;923.85;;;23.30;67.70;;;;;;4996470;28;20223;-81
2022/09/01 12:18:15;;;;;;;1004.63;917.50;;;23.40;67.50;;;;;;4991604;28;20292;-81
2022/09/01 12:20:42;;;;;;;1017.53;929.97;;;23.40;69.50;;;;;;4980769;28;20201;-81
2022/09/01 12:23:24;;;;;;;1024.78;937.13;;;23.40;69.40;;;;;;4990149;28;20200;-81
2022/09/01 12:25:52;;;;;;;1018.05;930.28;;;23.40;69.50;;;;;;4988980;28;20197;-81